Time;durP1;ratioP1;P1;durP2;ratioP2;P2;SDS_P1;SDS_P2;PMS_P1;PMS_P2;Temp;Humidity;BMP_temperature;BMP_pressure;BME280_temperature;BME280_humidity;BME280_pressure;Samples;Min_cycle;Max_cycle;Signal;HPM_P1;HPM_P2
2023/01/04 00:01:19;;;;;;;24.30;6.03;;;8.30;99.90;;;;;;5073610;28;20054;-83
2023/01/04 00:03:46;;;;;;;21.35;5.05;;;8.20;99.90;;;;;;5073576;28;20032;-84
2023/01/04 00:06:14;;;;;;;31.60;6.05;;;8.20;99.90;;;;;;5075318;28;20087;-83
2023/01/04 00:08:40;;;;;;;17.83;4.70;;;8.20;99.90;;;;;;5074133;28;20040;-80
2023/01/04 00:11:11;;;;;;;26.25;5.18;;;8.20;99.90;;;;;;5074370;28;20048;-81
2023/01/04 00:13:37;;;;;;;18.05;4.60;;;8.30;99.90;;;;;;5077979;28;20036;-82
2023/01/04 00:16:06;;;;;;;22.80;4.90;;;8.30;99.90;;;;;;5078367;28;20105;-84
2023/01/04 00:18:33;;;;;;;19.30;5.32;;;8.20;99.90;;;;;;5078231;28;20040;-82
2023/01/04 00:21:09;;;;;;;19.15;5.80;;;8.30;99.90;;;;;;5075628;28;20485;-82
2023/01/04 00:23:35;;;;;;;21.02;5.10;;;8.20;99.90;;;;;;5074207;28;20425;-82
2023/01/04 00:26:01;;;;;;;19.92;4.97;;;8.20;99.90;;;;;;5080947;28;20045;-81
2023/01/04 00:28:27;;;;;;;15.43;4.00;;;8.20;99.90;;;;;;5080898;28;20074;-82
2023/01/04 00:30:52;;;;;;;22.77;5.43;;;8.10;99.90;;;;;;5077275;28;20036;-81
2023/01/04 00:33:18;;;;;;;19.27;5.13;;;8.10;99.90;;;;;;5073768;28;20098;-81
2023/01/04 00:35:44;;;;;;;20.73;4.43;;;8.10;99.90;;;;;;5073399;28;20461;-76
2023/01/04 00:38:09;;;;;;;28.60;4.50;;;8.10;99.90;;;;;;5072312;28;20045;-82
2023/01/04 00:40:35;;;;;;;19.60;5.35;;;8.00;99.90;;;;;;5088977;28;20139;-82
2023/01/04 00:43:01;;;;;;;25.45;5.65;;;8.00;99.90;;;;;;5055604;28;20045;-81
2023/01/04 00:45:26;;;;;;;19.85;5.90;;;7.90;99.90;;;;;;5073308;28;20036;-80
2023/01/04 00:47:52;;;;;;;21.17;5.10;;;7.90;99.90;;;;;;5072125;28;20162;-81
2023/01/04 00:50:18;;;;;;;24.23;4.82;;;7.80;99.90;;;;;;5072099;28;20123;-80
2023/01/04 00:52:43;;;;;;;20.98;4.85;;;7.80;99.90;;;;;;5073406;28;20044;-82
2023/01/04 00:55:09;;;;;;;20.55;5.07;;;7.80;99.90;;;;;;5071913;28;20045;-81
2023/01/04 00:57:35;;;;;;;19.30;4.93;;;7.80;99.90;;;;;;5055866;28;20135;-81
2023/01/04 01:00:01;;;;;;;18.27;4.70;;;7.80;99.90;;;;;;5072417;28;20124;-81
2023/01/04 01:02:26;;;;;;;22.63;5.53;;;7.80;99.90;;;;;;5073147;28;20056;-81
2023/01/04 01:04:52;;;;;;;24.20;5.53;;;7.80;99.90;;;;;;5073688;28;20044;-82
2023/01/04 01:07:18;;;;;;;26.50;5.80;;;7.80;99.90;;;;;;5072205;28;20043;-81
2023/01/04 01:09:44;;;;;;;24.27;4.72;;;7.70;99.90;;;;;;5072249;28;20115;-81
2023/01/04 01:12:09;;;;;;;19.45;5.43;;;7.70;99.90;;;;;;5073159;28;20044;-79
2023/01/04 01:14:35;;;;;;;19.00;4.22;;;7.80;99.90;;;;;;5072151;28;20123;-85
2023/01/04 01:17:01;;;;;;;19.70;5.82;;;7.80;99.90;;;;;;5072027;28;20040;-79
2023/01/04 01:19:28;;;;;;;24.77;5.68;;;7.80;99.90;;;;;;5072952;28;20135;-80
2023/01/04 01:21:55;;;;;;;21.85;4.68;;;7.80;99.90;;;;;;5076973;28;20072;-82
2023/01/04 01:24:21;;;;;;;28.00;5.15;;;7.80;99.90;;;;;;5076958;28;20051;-83
2023/01/04 01:26:47;;;;;;;20.73;4.78;;;7.80;99.90;;;;;;5076575;28;20123;-80
2023/01/04 01:29:13;;;;;;;20.55;5.75;;;7.80;99.90;;;;;;5076312;28;20048;-80
2023/01/04 01:31:39;;;;;;;18.33;5.78;;;7.80;99.90;;;;;;5076163;28;20037;-81
2023/01/04 01:34:05;;;;;;;18.33;5.33;;;7.70;99.90;;;;;;5075694;28;20040;-81
2023/01/04 01:36:31;;;;;;;18.50;5.30;;;7.70;99.90;;;;;;5075583;28;20055;-80
2023/01/04 01:38:57;;;;;;;26.33;5.38;;;7.80;99.90;;;;;;5076731;28;20460;-81
2023/01/04 01:41:29;;;;;;;17.97;5.83;;;7.70;99.90;;;;;;5077260;28;20438;-81
2023/01/04 01:44:26;;;;;;;17.63;5.65;;;7.70;99.90;;;;;;5076495;28;20119;-82
2023/01/04 01:46:53;;;;;;;25.08;5.55;;;7.80;99.90;;;;;;5059013;28;20044;-82
2023/01/04 01:49:31;;;;;;;;;;;7.70;99.90;;;;;;5059440;28;20078;-83
2023/01/04 01:52:00;;;;;;;20.45;5.20;;;7.70;99.90;;;;;;5076013;28;20000;-82
2023/01/04 01:54:31;;;;;;;18.10;5.35;;;7.70;99.90;;;;;;5076222;28;20045;-79
2023/01/04 01:56:59;;;;;;;18.13;5.60;;;7.70;99.90;;;;;;5076153;28;20535;-79
2023/01/04 01:59:26;;;;;;;19.75;5.78;;;7.80;99.90;;;;;;5076958;28;20123;-77
2023/01/04 02:01:52;;;;;;;24.02;6.70;;;7.80;99.90;;;;;;5075910;28;20102;-80
2023/01/04 02:04:18;;;;;;;23.85;5.78;;;7.80;99.90;;;;;;5059576;28;20045;-80
2023/01/04 02:06:53;;;;;;;23.08;6.45;;;7.80;99.90;;;;;;5076367;28;20455;-82
2023/01/04 02:09:21;;;;;;;13.23;4.25;;;7.80;99.90;;;;;;5076415;28;20044;-83
2023/01/04 02:11:47;;;;;;;17.65;5.38;;;7.80;99.90;;;;;;5041326;28;20040;-80
2023/01/04 02:14:27;;;;;;;18.50;5.93;;;7.80;99.90;;;;;;5074180;28;20050;-83
2023/01/04 02:17:10;;;;;;;21.42;6.32;;;7.80;99.90;;;;;;5076272;28;20358;-82
2023/01/04 02:19:38;;;;;;;24.85;6.35;;;7.80;99.90;;;;;;5076496;28;20472;-81
2023/01/04 02:22:10;;;;;;;16.23;4.63;;;7.90;99.90;;;;;;5074538;28;20441;-81
2023/01/04 02:24:53;;;;;;;16.20;4.32;;;7.90;99.90;;;;;;5075922;28;20133;-81
2023/01/04 02:27:34;;;;;;;17.05;4.85;;;7.90;99.90;;;;;;5075937;28;20047;-81
2023/01/04 02:30:15;;;;;;;24.88;5.32;;;7.90;99.90;;;;;;5075087;28;20048;-78
2023/01/04 02:33:17;;;;;;;20.55;4.38;;;7.90;99.90;;;;;;5078107;28;20110;-80
2023/01/04 02:36:09;;;;;;;12.93;3.88;;;7.90;99.90;;;;;;5075664;28;20400;-80
2023/01/04 02:38:35;;;;;;;17.02;3.88;;;8.00;99.90;;;;;;5075409;28;20051;-80
2023/01/04 02:41:14;;;;;;;15.70;3.97;;;8.00;99.90;;;;;;5077105;28;20096;-73
2023/01/04 02:47:08;;;;;;;18.40;4.15;;;8.10;99.90;;;;;;5077600;28;20131;-79
2023/01/04 02:52:20;;;;;;;18.88;5.30;;;8.10;99.90;;;;;;5075015;28;20465;-84
2023/01/04 02:54:47;;;;;;;;;;;8.20;99.90;;;;;;5074396;28;20128;-84
2023/01/04 02:57:18;;;;;;;14.63;3.97;;;8.20;99.90;;;;;;5074319;28;19920;-85
2023/01/04 03:00:10;;;;;;;15.98;4.07;;;8.20;99.90;;;;;;5076100;28;20051;-81
2023/01/04 03:06:15;;;;;;;17.00;4.00;;;8.30;99.90;;;;;;5077034;28;20127;-82
2023/01/04 03:08:53;;;;;;;15.07;4.18;;;8.30;99.90;;;;;;5058223;28;20384;-83
2023/01/04 03:14:04;;;;;;;18.00;4.78;;;8.40;99.90;;;;;;5075859;28;20040;-83
2023/01/04 03:16:32;;;;;;;16.95;4.28;;;8.50;99.90;;;;;;5074118;28;20093;-78
2023/01/04 03:19:08;;;;;;;12.45;4.70;;;8.50;99.90;;;;;;5075473;28;20044;-84
2023/01/04 03:21:36;;;;;;;13.75;4.13;;;8.60;99.90;;;;;;5076330;28;20048;-84
2023/01/04 03:35:38;;;;;;;18.60;4.82;;;8.80;99.90;;;;;;5074868;28;20041;-78
2023/01/04 03:50:40;;;;;;;17.55;5.00;;;9.00;99.90;;;;;;5075119;28;20052;-80
2023/01/04 03:53:07;;;;;;;14.93;4.65;;;9.00;99.90;;;;;;5075883;28;20072;-79
2023/01/04 03:55:36;;;;;;;15.07;4.82;;;9.00;99.90;;;;;;5057255;28;20107;-82
2023/01/04 03:58:02;;;;;;;9.82;3.20;;;9.00;99.90;;;;;;5073596;28;20055;-79
2023/01/04 04:00:28;;;;;;;17.98;4.88;;;9.00;99.90;;;;;;5073875;28;20048;-83
2023/01/04 04:03:05;;;;;;;15.52;3.90;;;9.10;99.90;;;;;;5074786;28;20492;-84
2023/01/04 04:08:28;;;;;;;16.02;4.95;;;9.20;99.90;;;;;;5075475;28;20373;-78
2023/01/04 04:13:48;;;;;;;14.38;5.03;;;9.20;99.90;;;;;;5075178;28;20048;-80
2023/01/04 04:16:15;;;;;;;14.15;4.10;;;9.20;99.90;;;;;;5075663;28;20048;-83
2023/01/04 04:18:40;;;;;;;12.68;4.15;;;9.20;99.90;;;;;;5076547;28;20040;-83
2023/01/04 04:21:06;;;;;;;12.10;4.07;;;9.30;99.90;;;;;;5076249;28;20174;-81
2023/01/04 04:23:32;;;;;;;14.07;4.90;;;9.30;99.90;;;;;;5057860;28;20048;-84
2023/01/04 04:25:57;;;;;;;17.38;5.30;;;9.30;99.90;;;;;;5073276;28;20469;-83
2023/01/04 04:28:23;;;;;;;14.73;3.85;;;9.30;99.90;;;;;;5073433;28;20045;-78
2023/01/04 04:30:49;;;;;;;13.32;3.95;;;9.30;99.90;;;;;;5073524;28;20032;-78
2023/01/04 04:33:15;;;;;;;13.32;4.57;;;9.40;99.90;;;;;;5073399;28;20123;-82
2023/01/04 04:35:41;;;;;;;16.15;4.68;;;9.40;99.90;;;;;;5107502;28;20115;-83
2023/01/04 04:38:06;;;;;;;20.65;4.82;;;9.40;99.90;;;;;;5074745;28;20044;-81
2023/01/04 04:43:16;;;;;;;15.55;4.47;;;9.40;99.90;;;;;;5075387;28;20110;-81
2023/01/04 04:45:42;;;;;;;12.25;3.83;;;9.50;99.90;;;;;;5074355;28;20049;-81
2023/01/04 04:48:08;;;;;;;20.02;5.32;;;9.50;99.90;;;;;;5073391;28;20055;-83
2023/01/04 04:50:33;;;;;;;14.63;4.43;;;9.50;99.90;;;;;;5074576;28;20040;-79
2023/01/04 04:52:59;;;;;;;14.20;4.60;;;9.50;99.90;;;;;;5075093;28;20056;-79
2023/01/04 04:55:25;;;;;;;17.92;4.82;;;9.50;99.90;;;;;;5078559;28;20039;-80
2023/01/04 04:57:51;;;;;;;18.83;6.05;;;9.60;99.90;;;;;;5079847;28;20056;-81
2023/01/04 05:00:16;;;;;;;22.10;5.80;;;9.60;99.90;;;;;;5065419;28;20055;-81
2023/01/04 05:02:42;;;;;;;21.90;6.05;;;9.60;99.90;;;;;;5080031;28;20393;-81
2023/01/04 05:05:08;;;;;;;17.15;6.50;;;9.60;99.90;;;;;;5045473;28;20040;-82
2023/01/04 05:07:34;;;;;;;28.42;7.32;;;9.60;99.90;;;;;;5061057;28;20048;-79
2023/01/04 05:10:00;;;;;;;21.13;6.70;;;9.70;99.90;;;;;;5093859;28;20075;-83
2023/01/04 05:15:10;;;;;;;28.55;7.70;;;9.70;99.90;;;;;;5077376;28;20423;-77
2023/01/04 05:17:35;;;;;;;28.33;7.78;;;9.70;99.90;;;;;;5077504;28;20047;-79
2023/01/04 05:20:02;;;;;;;26.15;8.25;;;9.80;99.90;;;;;;5044144;28;20048;-81
2023/01/04 05:22:28;;;;;;;24.63;7.77;;;9.80;99.90;;;;;;5059976;28;20070;-81
2023/01/04 05:24:53;;;;;;;26.98;8.90;;;9.80;99.90;;;;;;5078149;28;20287;-82
2023/01/04 05:27:19;;;;;;;27.35;7.80;;;9.90;99.90;;;;;;5077153;28;20040;-81
2023/01/04 05:32:29;;;;;;;31.60;9.63;;;9.90;99.90;;;;;;5077249;28;20132;-81
2023/01/04 05:34:55;;;;;;;31.80;9.15;;;9.90;99.90;;;;;;5076928;28;20076;-82
2023/01/04 05:37:20;;;;;;;31.52;9.18;;;10.00;99.90;;;;;;5060454;28;20370;-85
2023/01/04 05:39:46;;;;;;;31.30;9.10;;;10.00;99.90;;;;;;5077111;28;20070;-82
2023/01/04 05:42:24;;;;;;;32.83;8.75;;;10.00;99.90;;;;;;5077091;28;20079;-82
2023/01/04 05:44:53;;;;;;;29.65;8.52;;;10.00;99.90;;;;;;5077535;28;20119;-80
2023/01/04 05:47:19;;;;;;;30.13;9.75;;;10.00;99.90;;;;;;5077649;28;20045;-80
2023/01/04 05:49:46;;;;;;;28.80;8.80;;;10.10;99.90;;;;;;5075735;28;20164;-80
2023/01/04 05:52:12;;;;;;;35.23;9.33;;;10.10;99.90;;;;;;5076032;28;20041;-82
2023/01/04 05:54:37;;;;;;;30.17;8.52;;;10.10;99.90;;;;;;5077220;28;20047;-82
2023/01/04 05:57:04;;;;;;;32.47;8.48;;;10.20;99.90;;;;;;5077024;28;20052;-81
2023/01/04 05:59:29;;;;;;;29.60;9.17;;;10.10;99.90;;;;;;5076508;28;20055;-86
2023/01/04 06:01:55;;;;;;;31.02;8.20;;;10.20;99.90;;;;;;5077643;28;20291;-83
2023/01/04 06:04:24;;;;;;;34.35;9.23;;;10.20;99.90;;;;;;5077266;28;20032;-81
2023/01/04 06:06:50;;;;;;;33.15;9.00;;;10.20;99.90;;;;;;5074673;28;20040;-80
2023/01/04 06:09:16;;;;;;;36.92;8.85;;;10.20;99.90;;;;;;5075422;28;20091;-83
2023/01/04 06:11:41;;;;;;;31.27;8.70;;;10.20;99.90;;;;;;5075089;28;20041;-82
2023/01/04 06:14:07;;;;;;;30.15;8.88;;;10.20;99.90;;;;;;5058415;28;20115;-84
2023/01/04 06:16:33;;;;;;;33.33;8.40;;;10.30;99.90;;;;;;5076232;28;20045;-82
2023/01/04 06:18:59;;;;;;;30.05;9.40;;;10.30;99.90;;;;;;5075748;28;20036;-80
2023/01/04 06:21:25;;;;;;;29.42;9.93;;;10.30;99.90;;;;;;5075844;28;20040;-83
2023/01/04 06:23:52;;;;;;;27.00;7.60;;;10.30;99.90;;;;;;5076071;28;20044;-82
2023/01/04 06:26:18;;;;;;;32.15;10.25;;;10.30;99.90;;;;;;5076084;28;20431;-82
2023/01/04 06:28:43;;;;;;;23.42;7.57;;;10.30;99.90;;;;;;5079445;28;20098;-80
2023/01/04 06:31:12;;;;;;;35.95;8.25;;;10.40;99.90;;;;;;5079707;28;20377;-82
2023/01/04 06:33:38;;;;;;;21.58;7.03;;;10.40;99.90;;;;;;5078360;28;20127;-80
2023/01/04 06:36:05;;;;;;;23.95;6.43;;;10.30;99.90;;;;;;5078035;28;20121;-80
2023/01/04 06:38:31;;;;;;;18.88;5.85;;;10.40;99.90;;;;;;5077660;28;20044;-81
2023/01/04 06:40:57;;;;;;;22.13;6.18;;;10.40;99.90;;;;;;5075312;28;20470;-80
2023/01/04 06:43:23;;;;;;;21.17;5.40;;;10.40;99.90;;;;;;5075726;28;20127;-79
2023/01/04 06:45:49;;;;;;;17.58;5.80;;;10.40;99.90;;;;;;5076253;28;20040;-80
2023/01/04 06:48:14;;;;;;;15.30;4.88;;;10.40;99.90;;;;;;5077257;28;20042;-79
2023/01/04 06:50:41;;;;;;;19.52;4.88;;;10.40;99.90;;;;;;5078395;28;20507;-81
2023/01/04 06:53:06;;;;;;;16.42;4.50;;;10.40;99.90;;;;;;5079211;28;20376;-82
2023/01/04 06:55:32;;;;;;;16.60;4.40;;;10.40;99.90;;;;;;5077093;28;20040;-80
2023/01/04 06:57:58;;;;;;;16.33;4.95;;;10.40;99.90;;;;;;5078102;28;20110;-80
2023/01/04 07:00:24;;;;;;;19.20;4.97;;;10.40;99.90;;;;;;5079277;28;20041;-80
2023/01/04 07:02:50;;;;;;;16.95;5.20;;;10.40;99.90;;;;;;5061720;28;20051;-80
2023/01/04 07:05:16;;;;;;;17.42;4.47;;;10.40;99.90;;;;;;5079869;28;20044;-79
2023/01/04 07:07:41;;;;;;;20.55;5.43;;;10.50;99.90;;;;;;5082319;28;20045;-82
2023/01/04 07:10:08;;;;;;;20.20;4.78;;;10.40;99.90;;;;;;5091145;28;20055;-80
2023/01/04 07:12:33;;;;;;;18.13;4.88;;;10.40;99.90;;;;;;5087763;28;20058;-80
2023/01/04 07:14:59;;;;;;;19.55;5.00;;;10.40;99.90;;;;;;5116850;28;20036;-82
2023/01/04 07:17:25;;;;;;;18.77;5.15;;;10.40;99.90;;;;;;5074963;28;20044;-81
2023/01/04 07:19:51;;;;;;;17.73;4.72;;;10.40;99.90;;;;;;5077326;28;20039;-83
2023/01/04 07:22:17;;;;;;;20.10;4.53;;;10.50;99.90;;;;;;5078974;28;20037;-81
2023/01/04 07:24:43;;;;;;;15.18;4.72;;;10.50;99.90;;;;;;5081524;28;20040;-79
2023/01/04 07:27:10;;;;;;;17.90;4.95;;;10.50;99.90;;;;;;5083294;28;20155;-83
2023/01/04 07:29:36;;;;;;;18.38;4.47;;;10.50;99.90;;;;;;5083247;28;20079;-80
2023/01/04 07:32:02;;;;;;;20.60;5.70;;;10.50;99.90;;;;;;5081383;28;20049;-82
2023/01/04 07:34:28;;;;;;;18.48;4.78;;;10.50;99.90;;;;;;5078635;28;20043;-80
2023/01/04 07:36:54;;;;;;;17.80;4.60;;;10.50;99.90;;;;;;5074317;28;20048;-82
2023/01/04 07:39:21;;;;;;;15.87;4.43;;;10.50;99.90;;;;;;5074381;28;20044;-81
2023/01/04 07:41:48;;;;;;;21.48;5.95;;;10.50;99.90;;;;;;5075725;28;20048;-80
2023/01/04 07:44:14;;;;;;;21.02;5.20;;;10.50;99.90;;;;;;5075824;28;20112;-82
2023/01/04 07:46:41;;;;;;;22.33;5.73;;;10.50;99.90;;;;;;5074960;28;20041;-81
2023/01/04 07:49:11;;;;;;;18.85;4.95;;;10.60;99.90;;;;;;5074542;28;20040;-81
2023/01/04 07:51:37;;;;;;;16.58;4.45;;;10.50;99.90;;;;;;5073843;28;20098;-83
2023/01/04 07:54:02;;;;;;;20.05;4.95;;;10.60;99.90;;;;;;5074744;28;20480;-81
2023/01/04 07:56:28;;;;;;;21.60;6.07;;;10.60;99.90;;;;;;5057149;28;20044;-80
2023/01/04 07:58:56;;;;;;;26.92;7.72;;;10.60;99.90;;;;;;5056066;28;20052;-80
2023/01/04 08:01:23;;;;;;;23.95;5.82;;;10.60;99.90;;;;;;5072992;28;20484;-81
2023/01/04 08:03:49;;;;;;;20.20;5.05;;;10.60;99.90;;;;;;5073489;28;20049;-82
2023/01/04 08:06:16;;;;;;;13.70;4.05;;;10.60;99.90;;;;;;5074930;28;20038;-80
2023/01/04 08:08:42;;;;;;;19.60;4.90;;;10.70;99.90;;;;;;5074579;28;20044;-82
2023/01/04 08:11:16;;;;;;;25.05;7.28;;;10.70;99.90;;;;;;5073903;28;20048;-84
2023/01/04 08:13:42;;;;;;;19.73;4.35;;;10.70;99.90;;;;;;5074033;28;20051;-81
2023/01/04 08:16:17;;;;;;;30.13;7.55;;;10.70;99.90;;;;;;5074533;28;20426;-82
2023/01/04 08:18:42;;;;;;;25.48;6.63;;;10.70;99.90;;;;;;5074484;28;20098;-82
2023/01/04 08:21:08;;;;;;;22.73;6.53;;;10.70;99.90;;;;;;5074631;28;20040;-79
2023/01/04 08:23:35;;;;;;;22.80;6.15;;;10.70;99.90;;;;;;5074389;28;20128;-81
2023/01/04 08:26:06;;;;;;;23.55;6.47;;;10.80;99.90;;;;;;5056886;28;20052;-82
2023/01/04 08:28:32;;;;;;;20.05;5.80;;;10.80;99.90;;;;;;5075874;28;20105;-83
2023/01/04 08:31:02;;;;;;;22.05;5.97;;;10.80;99.90;;;;;;5078819;28;20423;-81
2023/01/04 08:33:28;;;;;;;23.83;6.68;;;10.80;99.90;;;;;;5079026;28;20040;-83
2023/01/04 08:36:04;;;;;;;23.60;5.65;;;10.80;99.90;;;;;;5077588;28;20048;-81
2023/01/04 08:38:30;;;;;;;23.73;6.20;;;10.80;99.90;;;;;;5077983;28;20511;-82
2023/01/04 08:40:56;;;;;;;21.75;5.03;;;10.80;99.90;;;;;;5076658;28;20044;-81
2023/01/04 08:43:21;;;;;;;21.25;5.05;;;10.90;99.90;;;;;;5078768;28;20044;-84
2023/01/04 08:45:47;;;;;;;23.35;6.38;;;10.80;99.90;;;;;;5076664;28;20036;-81
2023/01/04 08:48:13;;;;;;;24.67;6.38;;;10.90;99.90;;;;;;5076295;28;20048;-79
2023/01/04 08:50:38;;;;;;;22.50;5.47;;;10.90;99.90;;;;;;5077661;28;20062;-80
2023/01/04 08:53:04;;;;;;;29.27;8.50;;;10.90;99.90;;;;;;5077274;28;20500;-81
2023/01/04 08:55:30;;;;;;;21.40;6.30;;;10.90;99.90;;;;;;5059728;28;20429;-80
2023/01/04 08:57:58;;;;;;;21.77;6.57;;;10.80;99.90;;;;;;5059341;28;20052;-80
2023/01/04 09:00:23;;;;;;;22.85;5.82;;;10.80;99.90;;;;;;5077192;28;20040;-78
2023/01/04 09:02:49;;;;;;;23.25;6.13;;;10.80;99.90;;;;;;5076380;28;20045;-79
2023/01/04 09:05:15;;;;;;;21.05;5.75;;;10.90;99.90;;;;;;5059858;28;20034;-82
2023/01/04 09:07:41;;;;;;;18.10;5.63;;;10.90;99.90;;;;;;5060051;28;20102;-79
2023/01/04 09:10:07;;;;;;;17.95;5.00;;;10.90;99.90;;;;;;5077897;28;20048;-80
2023/01/04 09:12:33;;;;;;;21.77;5.20;;;10.90;99.90;;;;;;5077347;28;20051;-79
2023/01/04 09:14:58;;;;;;;19.70;5.07;;;10.90;99.90;;;;;;5076835;28;20403;-79
2023/01/04 09:17:24;;;;;;;18.15;4.43;;;11.00;99.90;;;;;;5077674;28;20048;-81
2023/01/04 09:19:50;;;;;;;14.05;3.97;;;10.90;99.90;;;;;;5077204;28;20111;-81
2023/01/04 09:22:15;;;;;;;15.13;4.22;;;11.00;99.90;;;;;;5044398;28;20048;-79
2023/01/04 09:24:41;;;;;;;13.85;3.28;;;11.00;99.90;;;;;;5111355;28;20098;-81
2023/01/04 09:27:07;;;;;;;15.35;3.30;;;11.00;99.90;;;;;;5084921;28;20045;-78
2023/01/04 09:29:33;;;;;;;18.73;3.97;;;11.00;99.90;;;;;;5084219;28;20055;-79
2023/01/04 09:31:58;;;;;;;16.65;3.38;;;11.00;99.90;;;;;;5059805;28;20040;-79
2023/01/04 09:34:24;;;;;;;13.68;3.60;;;11.00;99.90;;;;;;5077412;28;20083;-79
2023/01/04 09:36:51;;;;;;;12.70;3.72;;;11.00;99.90;;;;;;5077071;28;20119;-81
2023/01/04 09:39:17;;;;;;;13.90;2.67;;;11.00;99.90;;;;;;5075429;28;20106;-81
2023/01/04 09:42:02;;;;;;;8.80;2.17;;;11.00;99.90;;;;;;5075944;28;20385;-81
2023/01/04 09:44:37;;;;;;;9.02;2.40;;;11.00;99.90;;;;;;5077216;28;20036;-78
2023/01/04 09:47:07;;;;;;;6.38;2.05;;;11.00;99.90;;;;;;5077502;28;20376;-81
2023/01/04 09:49:39;;;;;;;8.32;2.00;;;11.00;99.90;;;;;;5059038;28;20055;-81
2023/01/04 09:52:10;;;;;;;5.80;1.15;;;11.00;99.90;;;;;;5076460;28;20052;-79
2023/01/04 09:55:00;;;;;;;6.50;1.38;;;11.10;99.90;;;;;;5076867;28;20044;-84
2023/01/04 09:57:28;;;;;;;9.98;1.90;;;11.10;99.90;;;;;;5076956;28;20168;-81
2023/01/04 10:00:01;;;;;;;4.32;1.35;;;11.10;99.90;;;;;;5076437;28;20087;-81
2023/01/04 10:02:48;;;;;;;5.03;1.50;;;11.10;99.90;;;;;;5076065;28;20044;-78
2023/01/04 10:05:23;;;;;;;6.47;1.38;;;11.10;99.90;;;;;;5076898;28;20089;-85
2023/01/04 10:07:49;;;;;;;6.78;1.55;;;11.10;99.90;;;;;;5075818;28;20391;-82
2023/01/04 10:10:17;;;;;;;5.25;1.30;;;11.10;99.90;;;;;;5075797;28;20124;-81
2023/01/04 10:13:12;;;;;;;7.63;1.27;;;11.10;99.90;;;;;;5075575;28;20056;-81
2023/01/04 10:15:56;;;;;;;4.47;1.30;;;11.20;99.90;;;;;;5076361;28;20078;-82
2023/01/04 10:18:43;;;;;;;5.80;1.10;;;11.20;99.90;;;;;;5076026;28;20112;-84
2023/01/04 10:21:23;;;;;;;3.35;1.00;;;11.10;99.90;;;;;;5059154;28;20045;-84
2023/01/04 10:23:52;;;;;;;4.40;1.17;;;11.20;99.90;;;;;;5075413;28;20036;-84
2023/01/04 10:26:38;;;;;;;5.75;1.33;;;11.20;99.90;;;;;;5076444;28;20377;-81
2023/01/04 10:29:29;;;;;;;6.72;1.55;;;11.20;99.90;;;;;;5074961;28;20174;-81
2023/01/04 10:32:10;;;;;;;7.25;1.70;;;11.20;99.90;;;;;;5075929;28;20136;-82
2023/01/04 10:34:44;;;;;;;8.50;2.75;;;11.20;99.90;;;;;;5076147;28;20067;-82
2023/01/04 10:37:23;;;;;;;9.75;2.78;;;11.20;99.90;;;;;;5076827;28;20055;-83
2023/01/04 10:39:54;;;;;;;10.60;2.67;;;11.20;99.90;;;;;;5076146;28;20051;-82
2023/01/04 10:42:23;;;;;;;15.07;3.30;;;11.20;99.90;;;;;;5075435;28;20120;-84
2023/01/04 10:45:17;;;;;;;10.30;3.20;;;11.30;99.90;;;;;;5074410;28;20036;-85
2023/01/04 10:47:43;;;;;;;13.38;3.45;;;11.30;99.90;;;;;;5074359;28;20071;-83
2023/01/04 10:50:33;;;;;;;13.38;3.20;;;11.30;99.90;;;;;;5074517;28;20090;-84
2023/01/04 10:53:19;;;;;;;14.90;3.13;;;11.30;99.90;;;;;;5076312;28;20044;-84
2023/01/04 10:56:08;;;;;;;11.93;3.35;;;11.30;99.90;;;;;;5076941;28;20047;-81
2023/01/04 10:59:01;;;;;;;15.32;3.50;;;11.30;99.90;;;;;;5078206;28;20045;-83
2023/01/04 11:01:40;;;;;;;13.32;3.40;;;11.40;99.90;;;;;;5060028;28;20392;-77
2023/01/04 11:04:26;;;;;;;12.60;3.28;;;11.40;99.90;;;;;;5076152;28;20380;-77
2023/01/04 11:06:58;;;;;;;13.75;3.38;;;11.40;99.90;;;;;;5075247;28;20139;-79
2023/01/04 11:09:31;;;;;;;15.23;3.63;;;11.40;99.90;;;;;;5076079;28;20044;-82
2023/01/04 11:11:58;;;;;;;15.10;4.20;;;11.50;99.90;;;;;;5077533;28;20066;-83
2023/01/04 11:14:24;;;;;;;14.25;3.70;;;11.40;99.90;;;;;;5077844;28;20036;-79
2023/01/04 11:16:56;;;;;;;21.20;4.82;;;11.40;99.90;;;;;;5079123;28;20037;-80
2023/01/04 11:19:22;;;;;;;17.95;4.20;;;11.50;99.90;;;;;;5078096;28;20115;-83
2023/01/04 11:21:55;;;;;;;25.40;5.47;;;11.50;99.90;;;;;;5077488;28;20075;-81
2023/01/04 11:24:22;;;;;;;23.55;5.38;;;11.50;99.90;;;;;;5076689;28;20047;-83
2023/01/04 11:26:50;;;;;;;26.02;5.22;;;11.60;99.90;;;;;;5057520;28;20384;-82
2023/01/04 11:29:25;;;;;;;30.33;5.13;;;11.50;99.90;;;;;;5074719;28;20041;-81
2023/01/04 11:31:56;;;;;;;20.95;4.47;;;11.50;99.90;;;;;;5075016;28;20174;-80
2023/01/04 11:34:49;;;;;;;20.42;4.18;;;11.60;99.90;;;;;;5073821;28;20037;-83
2023/01/04 11:37:34;;;;;;;29.65;4.80;;;11.70;99.90;;;;;;5075150;28;20032;-80
2023/01/04 11:40:22;;;;;;;21.88;4.65;;;11.60;99.90;;;;;;5076839;28;20075;-81
2023/01/04 11:43:17;;;;;;;27.00;5.80;;;11.60;99.90;;;;;;5080724;28;20050;-83
2023/01/04 11:45:58;;;;;;;29.48;6.45;;;11.70;99.90;;;;;;5083258;28;20407;-80
2023/01/04 11:48:34;;;;;;;28.85;6.60;;;11.60;99.90;;;;;;5076441;28;20065;-82
2023/01/04 11:51:01;;;;;;;28.45;6.20;;;11.60;99.90;;;;;;5076230;28;20051;-79
2023/01/04 11:53:29;;;;;;;31.60;6.60;;;11.60;99.90;;;;;;5075056;28;20087;-82
2023/01/04 11:56:17;;;;;;;27.13;6.53;;;11.60;99.90;;;;;;5075250;28;20392;-82
2023/01/04 11:59:01;;;;;;;22.98;6.10;;;11.70;99.90;;;;;;5056806;28;20052;-84
2023/01/04 12:01:26;;;;;;;26.88;6.07;;;11.80;99.90;;;;;;5074936;28;20569;-82
2023/01/04 12:03:52;;;;;;;36.10;6.82;;;11.60;99.90;;;;;;5056848;28;20079;-84
2023/01/04 12:06:20;;;;;;;20.20;5.53;;;11.80;99.90;;;;;;5056951;28;20044;-84
2023/01/04 12:08:47;;;;;;;19.35;4.97;;;11.70;99.90;;;;;;5075569;28;20066;-82
2023/01/04 12:11:27;;;;;;;22.15;5.63;;;11.80;99.90;;;;;;5075723;28;20062;-79
2023/01/04 12:13:53;;;;;;;16.02;3.50;;;11.80;99.90;;;;;;5075017;28;20036;-82
2023/01/04 12:16:28;;;;;;;13.60;3.53;;;11.70;99.90;;;;;;5075607;28;20040;-84
2023/01/04 12:18:54;;;;;;;12.77;2.83;;;11.80;99.90;;;;;;5074749;28;20498;-83
2023/01/04 12:21:23;;;;;;;8.90;2.50;;;11.70;99.90;;;;;;5075762;28;20088;-85
2023/01/04 12:23:50;;;;;;;13.98;2.97;;;11.80;99.90;;;;;;5074628;28;20048;-79
2023/01/04 12:26:16;;;;;;;;;;;11.70;99.90;;;;;;5074495;28;20131;-82
2023/01/04 12:28:53;;;;;;;8.95;2.33;;;11.70;99.90;;;;;;5073966;28;19963;-82
2023/01/04 12:31:18;;;;;;;11.07;2.13;;;11.70;99.90;;;;;;5076740;28;20049;-83
2023/01/04 12:33:45;;;;;;;8.80;1.95;;;11.70;99.90;;;;;;5075754;28;20055;-78
2023/01/04 12:36:15;;;;;;;9.88;2.20;;;11.70;99.90;;;;;;5075165;28;20067;-83
2023/01/04 12:39:01;;;;;;;10.50;2.20;;;11.80;99.90;;;;;;5073852;28;20090;-81
2023/01/04 12:41:33;;;;;;;7.75;1.80;;;11.70;99.90;;;;;;5074552;28;20083;-80
2023/01/04 12:44:00;;;;;;;10.60;2.17;;;11.70;99.90;;;;;;5075735;28;20043;-79
2023/01/04 12:49:28;;;;;;;11.73;2.20;;;11.60;99.90;;;;;;5075025;28;20104;-81
2023/01/04 12:52:06;;;;;;;13.55;2.72;;;11.60;99.90;;;;;;5074493;28;20041;-81
2023/01/04 12:54:47;;;;;;;18.50;4.45;;;11.70;99.90;;;;;;5075301;28;20346;-82
2023/01/04 12:57:16;;;;;;;20.40;3.70;;;11.70;99.90;;;;;;5075204;28;20049;-84
2023/01/04 13:00:12;;;;;;;16.08;3.63;;;11.60;99.90;;;;;;5075514;28;20060;-83
2023/01/04 13:03:13;;;;;;;24.55;3.83;;;11.60;99.90;;;;;;5071198;28;20057;-84
2023/01/04 13:05:41;;;;;;;22.30;3.70;;;11.60;99.90;;;;;;5074807;28;20046;-81
2023/01/04 13:08:13;;;;;;;27.75;4.68;;;11.60;99.90;;;;;;5074351;28;20116;-82
2023/01/04 13:10:41;;;;;;;16.55;3.50;;;11.70;99.90;;;;;;5074674;28;20040;-79
2023/01/04 13:13:13;;;;;;;21.85;3.28;;;11.60;99.90;;;;;;5075727;28;20044;-81
2023/01/04 13:16:16;;;;;;;20.92;3.45;;;11.60;99.90;;;;;;5079254;28;20040;-81
2023/01/04 13:18:51;;;;;;;24.58;3.65;;;11.60;99.90;;;;;;5081630;28;20090;-81
2023/01/04 13:21:40;;;;;;;24.05;3.30;;;11.60;99.90;;;;;;5079923;28;20083;-84
2023/01/04 13:24:22;;;;;;;27.65;2.97;;;11.60;99.90;;;;;;5081644;28;20074;-81
2023/01/04 13:26:50;;;;;;;33.80;4.10;;;11.60;99.90;;;;;;5081639;28;20384;-82
2023/01/04 13:29:42;;;;;;;30.65;3.78;;;11.60;99.90;;;;;;5082116;28;20053;-83
2023/01/04 13:32:22;;;;;;;33.13;3.78;;;11.60;99.90;;;;;;5077272;28;20054;-80
2023/01/04 13:35:08;;;;;;;33.35;3.65;;;11.60;99.90;;;;;;5078170;28;20441;-80
2023/01/04 13:37:39;;;;;;;38.95;3.45;;;11.60;99.90;;;;;;5077783;28;20136;-79
2023/01/04 13:40:27;;;;;;;31.35;3.53;;;11.60;99.90;;;;;;5078327;28;20048;-81
2023/01/04 13:43:31;;;;;;;26.45;2.60;;;11.60;99.90;;;;;;5077396;28;20084;-83
2023/01/04 13:46:17;;;;;;;30.95;3.55;;;11.70;99.90;;;;;;5057255;28;20052;-79
2023/01/04 13:48:46;;;;;;;38.53;3.15;;;11.60;99.90;;;;;;5110354;28;20456;-82
2023/01/04 13:51:22;;;;;;;33.05;3.63;;;11.70;99.90;;;;;;5075891;28;20041;-81
2023/01/04 13:53:56;;;;;;;25.20;2.97;;;12.80;99.90;;;;;;5077402;28;20040;-81